AirNav   Pilot Hours Calculator
 
 1655 users online  

7CA1 Abraham Ranch Airport
Lucerne Valley, California, USA

GOING TO LUCERNE VALLEY?


FAA INFORMATION EFFECTIVE 15 AUGUST 2019

Location

FAA Identifier: 7CA1
Lat/Long: 34-24-52.9990N 116-37-21.0850W
34-24.883317N 116-37.351417W
34.4147219,-116.6225236
(estimated)
Elevation: 2850 ft. / 869 m (estimated)
Variation: 14E (1985)
From city: 16 miles SE of LUCERNE VALLEY, CA
Time zone: UTC -7 (UTC -8 during Standard Time)
Zip code: 92285

Airport Operations

Airport use: Private use. Permission required prior to landing
Activation date: 10/1978
Control tower: no
ARTCC: LOS ANGELES CENTER
FSS: RIVERSIDE FLIGHT SERVICE STATION
Attendance: UNATNDD
Wind indicator: yes
Segmented circle: no

Airport Communications

WX AWOS-3 at L35 (15 nm SW): 135.925 (909-585-4033)
  • UNICOM 123.500.

Nearby radio navigation aids

VOR radial/distance  VOR name  Freq  Var
HECr184/24.3HECTOR VORTAC112.7015E
DAGr169/32.9DAGGETT VORTAC113.2015E
PSPr331/34.1PALM SPRINGS VORTAC115.5013E
VCVr092/39.4VICTORVILLE VOR/DME109.0514E

Airport Services

Runway Information

Runway 9/27

Dimensions: 4000 x 75 ft. / 1219 x 23 m
Surface: dirt
RUNWAY 9  RUNWAY 27
Traffic pattern: rightleft

Airport Ownership and Management from official FAA records

Ownership: Privately-owned
Owner: HAROLD W ABRAHAM
455 BELLE BREEZE PL
GALLATIN, TN 37066
Phone (516) 609-6019
Manager: JOHN KING
2537 PACIFIC COAST HWY, 221D
TORRANCE , CA 90505
Phone (310) 994-8756

Airport Operational Statistics

Aircraft based on the field: 4
Single engine airplanes: 2
Multi engine airplanes: 2
    

Additional Remarks

FOR CD CTC LOS ANGELES ARTCC AT 661-575-2079.

Instrument Procedures

There are no published instrument procedures at 7CA1.

Some nearby airports with instrument procedures:

L35 - Big Bear City Airport (15 nm SW)
KDAG - Barstow-Daggett Airport (28 nm N)
KAPV - Apple Valley Airport (29 nm W)
KREI - Redlands Municipal Airport (33 nm SW)
KPSP - Palm Springs International Airport (36 nm S)
 
Loc | Ops | Rwys | IFR | FBO | Links
Com | Nav | Svcs | Stats | Notes

San Bernardino International Airport Authority
 
Area around 7CA1 (Abraham Ranch Airport)
 
Road maps at: MapQuest Bing Google
 
Aerial photo
WARNING: Photo may not be current or correct
Aerial photo of 7CA1 (Abraham Ranch Airport)
Photo by John King

Do you have a better or more recent aerial photo of Abraham Ranch Airport that you would like to share? If so, please send us your photo.

 
Sectional chart

 
Airport distance calculator
Flying to Abraham Ranch Airport? Find the distance to fly.

From to 7CA1

Sunrise and sunset
Times for 21-Aug-2019
 Local
(UTC-7)
 Zulu
(UTC)
Morning civil twilight05:4712:47
Sunrise06:1313:13
Sunset19:2602:26
Evening civil twilight19:5302:53

Current date and time
Zulu (UTC)  21-Aug-2019 15:31:21
Local (UTC-7)  21-Aug-2019 08:31:21
 
METAR
KL35 
15nm SW 
211515Z AUTO 00000KT 10SM CLR 15/00 A3024 RMK AO2
KNXP 
24nm E 
211456Z AUTO 31006KT 9SM CLR 28/M01 A2997 RMK AO2 SLP107 T02831011 53010
KDAG 
27nm N 
211450Z AUTO 29013KT 10SM CLR 25/06 A2992 RMK AO2 SLP102 T02500061 53012
TAF
KNXP 
24nm E 
2109/2209 26009KT 9999 SKC QNH2979INS TEMPO 2120/2201 17012G22KT T20/2113Z T41/2122Z
KDAG 
27nm N 
211120Z 2112/2212 28011KT P6SM SKC FM220200 26013G21KT P6SM SKC
NOTAMs
Click for the latest NOTAMs
NOTAMs are issued by the DoD/FAA and will open in a separate window not controlled by AirNav.

 

 
 

Would you like to see your business listed on this page?

 If your business provides an interesting product or service to pilots, flight crews, aircraft, or users of the Abraham Ranch Airport, you should consider listing it here.  To start the listing process, click on the button below
 
Add a business
 

Other Pages about Abraham Ranch Airport

Update a link
 
Copyright © AirNav, LLC. All rights reserved. Privacy Policy  Contact